Time;durP1;ratioP1;P1;durP2;ratioP2;P2;SDS_P1;SDS_P2;PMS_P1;PMS_P2;Temp;Humidity;BMP_temperature;BMP_pressure;BME280_temperature;BME280_humidity;BME280_pressure;Samples;Min_cycle;Max_cycle;Signal;HPM_P1;HPM_P2
2022/05/18 00:01:00;;;;;;;3.35;2.35;;;16.80;99.90;;;;;;5033631;28;20226;-58
2022/05/18 00:03:31;;;;;;;3.58;2.42;;;16.70;99.90;;;;;;5033694;28;20210;-58
2022/05/18 00:06:01;;;;;;;4.30;2.40;;;16.60;99.90;;;;;;5033772;28;20206;-58
2022/05/18 00:08:28;;;;;;;4.60;2.65;;;16.60;99.90;;;;;;5033456;28;20321;-58
2022/05/18 00:10:54;;;;;;;2.80;2.28;;;16.70;99.90;;;;;;5033727;28;20626;-58
2022/05/18 00:13:22;;;;;;;4.38;2.60;;;16.80;99.90;;;;;;5033323;28;20206;-58
2022/05/18 00:15:49;;;;;;;3.40;2.42;;;16.90;99.90;;;;;;5033973;28;20259;-58
2022/05/18 00:18:17;;;;;;;3.20;2.47;;;17.00;99.90;;;;;;5033061;28;20230;-58
2022/05/18 00:20:43;;;;;;;5.90;2.63;;;17.00;99.90;;;;;;5033431;28;20763;-59
2022/05/18 00:23:10;;;;;;;2.80;2.30;;;17.00;99.90;;;;;;5033579;28;20211;-59
2022/05/18 00:25:39;;;;;;;4.63;2.50;;;16.90;99.90;;;;;;5033732;28;20206;-59
2022/05/18 00:28:06;;;;;;;6.10;2.63;;;16.90;99.90;;;;;;5033308;28;20237;-58
2022/05/18 00:30:38;;;;;;;4.83;2.80;;;16.80;99.90;;;;;;5033503;28;20199;-59
2022/05/18 00:33:05;;;;;;;5.20;2.90;;;16.80;99.90;;;;;;5033136;28;20233;-59
2022/05/18 00:35:33;;;;;;;3.67;2.80;;;16.80;99.90;;;;;;5033705;28;20606;-58
2022/05/18 00:38:01;;;;;;;3.13;2.53;;;16.80;99.90;;;;;;5033006;28;20649;-59
2022/05/18 00:40:28;;;;;;;3.97;2.83;;;16.80;99.90;;;;;;5032901;28;20322;-59
2022/05/18 00:42:55;;;;;;;4.47;2.80;;;16.90;99.90;;;;;;5032961;28;20213;-59
2022/05/18 00:45:21;;;;;;;4.43;2.75;;;16.90;99.90;;;;;;5033040;28;20217;-59
2022/05/18 00:47:49;;;;;;;2.90;2.60;;;16.90;99.90;;;;;;5032652;28;20256;-59
2022/05/18 00:50:21;;;;;;;5.80;2.72;;;16.80;99.90;;;;;;5032823;28;20214;-59
2022/05/18 00:52:52;;;;;;;6.57;2.80;;;16.90;99.90;;;;;;5032561;28;20264;-59
2022/05/18 00:55:23;;;;;;;5.30;2.73;;;16.90;99.90;;;;;;5032672;28;20206;-58
2022/05/18 00:57:57;;;;;;;4.93;2.43;;;16.90;99.90;;;;;;5032856;28;20642;-59
2022/05/18 01:00:24;;;;;;;5.37;3.00;;;17.00;99.90;;;;;;5032740;28;20253;-59
2022/05/18 01:02:58;;;;;;;6.30;2.73;;;16.90;99.90;;;;;;5032443;28;20206;-59
2022/05/18 01:05:30;;;;;;;5.63;2.73;;;16.90;99.90;;;;;;5032434;28;20213;-59
2022/05/18 01:07:59;;;;;;;3.27;2.40;;;16.90;99.90;;;;;;5032529;28;20249;-59
2022/05/18 01:10:28;;;;;;;6.43;2.80;;;16.90;99.90;;;;;;5032585;28;20563;-59
2022/05/18 01:12:55;;;;;;;2.93;2.60;;;16.80;99.90;;;;;;5032434;28;20582;-59
2022/05/18 01:15:22;;;;;;;5.30;2.60;;;16.80;99.90;;;;;;5032492;28;20228;-59
2022/05/18 01:17:57;;;;;;;3.10;2.60;;;16.80;99.90;;;;;;5032314;28;20226;-59
2022/05/18 01:20:27;;;;;;;3.47;2.67;;;16.70;99.90;;;;;;5032525;28;20220;-59
2022/05/18 01:23:17;;;;;;;3.53;2.63;;;16.60;99.90;;;;;;5032732;28;20256;-59
2022/05/18 01:26:03;;;;;;;3.97;2.70;;;16.60;99.90;;;;;;5032704;28;20211;-58
2022/05/18 01:28:36;;;;;;;2.67;2.47;;;16.60;99.90;;;;;;5031959;28;20226;-58
2022/05/18 01:31:04;;;;;;;5.10;2.70;;;16.50;99.90;;;;;;5032363;28;20252;-58
2022/05/18 01:33:32;;;;;;;3.87;2.57;;;16.40;99.90;;;;;;5031976;28;20210;-58
2022/05/18 01:36:00;;;;;;;5.00;2.90;;;16.40;99.90;;;;;;5032160;28;20206;-58
2022/05/18 01:38:26;;;;;;;3.33;2.90;;;16.30;99.90;;;;;;5031915;28;20230;-58
2022/05/18 01:40:59;;;;;;;3.13;2.83;;;16.20;99.90;;;;;;5031994;28;20233;-58
2022/05/18 01:43:30;;;;;;;3.97;2.80;;;16.10;99.90;;;;;;5032018;28;20289;-58
2022/05/18 01:46:00;;;;;;;4.33;2.93;;;16.20;99.90;;;;;;5031999;28;20219;-58
2022/05/18 01:48:30;;;;;;;3.20;2.57;;;16.20;99.90;;;;;;5032447;28;20656;-58
2022/05/18 01:50:59;;;;;;;5.80;2.70;;;16.20;99.90;;;;;;5032263;28;20210;-58
2022/05/18 01:53:26;;;;;;;5.13;2.93;;;16.20;99.90;;;;;;5032054;28;20202;-58
2022/05/18 01:55:52;;;;;;;3.57;2.90;;;16.30;99.90;;;;;;5032066;28;20558;-58
2022/05/18 01:58:19;;;;;;;4.07;3.00;;;16.20;99.90;;;;;;5032288;28;20714;-58
2022/05/18 02:00:46;;;;;;;7.33;3.10;;;16.30;99.90;;;;;;5032161;28;20268;-58
2022/05/18 02:03:16;;;;;;;4.37;2.97;;;16.30;99.90;;;;;;5032036;28;20352;-58
2022/05/18 02:05:44;;;;;;;5.20;2.90;;;16.20;99.90;;;;;;5032131;28;20214;-58
2022/05/18 02:08:12;;;;;;;3.87;2.77;;;16.20;99.90;;;;;;5031433;28;20280;-58
2022/05/18 02:10:39;;;;;;;4.83;3.30;;;16.20;99.90;;;;;;5031600;28;20213;-58
2022/05/18 02:13:06;;;;;;;4.20;3.30;;;16.10;99.90;;;;;;5031477;28;20689;-58
2022/05/18 02:15:34;;;;;;;5.00;3.43;;;16.00;99.90;;;;;;5031659;28;20202;-58
2022/05/18 02:18:01;;;;;;;4.67;3.20;;;15.90;99.90;;;;;;5031514;28;20316;-58
2022/05/18 02:20:29;;;;;;;5.80;3.23;;;15.80;99.90;;;;;;5031499;28;20253;-58
2022/05/18 02:22:56;;;;;;;4.50;3.10;;;15.70;99.90;;;;;;5031540;28;20206;-58
2022/05/18 02:25:23;;;;;;;7.57;3.10;;;15.70;99.90;;;;;;5031681;28;20256;-58
2022/05/18 02:27:51;;;;;;;6.67;3.43;;;15.60;99.90;;;;;;5031556;28;20226;-58
2022/05/18 02:30:18;;;;;;;16.57;3.20;;;15.60;99.90;;;;;;5031567;28;20293;-58
2022/05/18 02:32:46;;;;;;;6.10;3.37;;;15.60;99.90;;;;;;5031164;28;20228;-58
2022/05/18 02:35:13;;;;;;;5.40;2.80;;;15.60;99.90;;;;;;5031320;28;20206;-58
2022/05/18 02:37:41;;;;;;;5.13;3.17;;;15.40;99.90;;;;;;5031503;28;20213;-58
2022/05/18 02:40:10;;;;;;;4.67;3.27;;;15.30;99.90;;;;;;5031437;28;20206;-58
2022/05/18 02:42:37;;;;;;;3.47;3.13;;;15.30;99.90;;;;;;5034614;28;20237;-58
2022/05/18 02:45:05;;;;;;;4.83;3.23;;;15.30;99.90;;;;;;5035105;28;20667;-58
2022/05/18 02:47:32;;;;;;;4.73;3.27;;;15.30;99.90;;;;;;5034858;28;20633;-58
2022/05/18 02:49:59;;;;;;;6.70;3.70;;;15.20;99.90;;;;;;5035279;28;20210;-58
2022/05/18 02:52:25;;;;;;;4.97;3.17;;;15.10;99.90;;;;;;5035159;28;20731;-58
2022/05/18 02:57:38;;;;;;;7.43;3.57;;;15.10;99.90;;;;;;5034927;28;20337;-59
2022/05/18 03:00:07;;;;;;;5.17;3.27;;;15.00;99.90;;;;;;5034747;28;20264;-58
2022/05/18 03:02:34;;;;;;;4.00;3.20;;;15.00;99.90;;;;;;5034665;28;20240;-59
2022/05/18 03:05:01;;;;;;;6.00;4.00;;;15.10;99.90;;;;;;5034742;28;20630;-58
2022/05/18 03:07:28;;;;;;;5.07;3.57;;;15.10;99.90;;;;;;5034674;28;20210;-58
2022/05/18 03:09:56;;;;;;;10.10;4.47;;;15.10;99.90;;;;;;5034743;28;20623;-58
2022/05/18 03:12:22;;;;;;;4.90;3.97;;;15.10;99.90;;;;;;5034548;28;20735;-58
2022/05/18 03:14:49;;;;;;;5.17;3.50;;;15.10;99.90;;;;;;5034283;28;20202;-58
2022/05/18 03:17:16;;;;;;;5.73;3.40;;;15.10;99.90;;;;;;5034462;28;20210;-59
2022/05/18 03:19:42;;;;;;;4.90;3.50;;;15.10;99.90;;;;;;5034443;28;20713;-59
2022/05/18 03:24:53;;;;;;;5.47;3.93;;;15.20;99.90;;;;;;5034375;28;20206;-59
2022/05/18 03:27:21;;;;;;;5.30;3.70;;;15.20;99.90;;;;;;5034289;28;20248;-59
2022/05/18 03:29:48;;;;;;;5.07;3.50;;;15.30;99.90;;;;;;5034423;28;20548;-59
2022/05/18 03:32:15;;;;;;;6.23;3.57;;;15.30;99.90;;;;;;5034393;28;20198;-59
2022/05/18 03:34:42;;;;;;;4.90;4.30;;;15.30;99.90;;;;;;5034022;28;20206;-59
2022/05/18 03:37:09;;;;;;;7.13;3.73;;;15.30;99.90;;;;;;5034308;28;20206;-58
2022/05/18 03:39:35;;;;;;;11.33;5.30;;;15.40;99.90;;;;;;5034079;28;20291;-59
2022/05/18 03:42:03;;;;;;;6.20;3.67;;;15.40;99.90;;;;;;5033853;28;20222;-59
2022/05/18 03:44:31;;;;;;;4.50;3.57;;;15.40;99.90;;;;;;5033781;28;20212;-59
2022/05/18 03:46:57;;;;;;;5.17;3.47;;;15.40;99.90;;;;;;5033867;28;20237;-58
2022/05/18 03:49:24;;;;;;;4.07;3.60;;;15.30;99.90;;;;;;5033956;28;20582;-60
2022/05/18 03:51:51;;;;;;;5.13;3.33;;;15.20;99.90;;;;;;5033296;28;20210;-58
2022/05/18 03:54:18;;;;;;;4.67;3.97;;;15.30;99.90;;;;;;5033562;28;20218;-59
2022/05/18 03:56:44;;;;;;;6.90;4.17;;;15.40;99.90;;;;;;5033666;28;20671;-59
2022/05/18 03:59:11;;;;;;;5.83;3.60;;;15.40;99.90;;;;;;5033983;28;20590;-58
2022/05/18 04:01:41;;;;;;;5.80;3.77;;;15.40;99.90;;;;;;5034419;28;20226;-59
2022/05/18 04:04:08;;;;;;;4.93;3.40;;;15.40;99.90;;;;;;5033988;28;20268;-59
2022/05/18 04:06:35;;;;;;;4.90;3.70;;;15.40;99.90;;;;;;5033830;28;20256;-58
2022/05/18 04:09:01;;;;;;;7.90;3.87;;;15.40;99.90;;;;;;5033285;28;20245;-58
2022/05/18 04:11:28;;;;;;;4.93;3.90;;;15.40;99.90;;;;;;5033706;28;20210;-59
2022/05/18 04:13:55;;;;;;;6.77;4.13;;;15.40;99.90;;;;;;5032840;28;20217;-59
2022/05/18 04:16:22;;;;;;;5.03;3.43;;;15.50;99.90;;;;;;5033423;28;20218;-58
2022/05/18 04:18:50;;;;;;;5.33;3.63;;;15.60;99.90;;;;;;5033230;28;20649;-59
2022/05/18 04:21:16;;;;;;;9.07;3.57;;;15.70;99.90;;;;;;5033235;28;20640;-57
2022/05/18 04:23:43;;;;;;;4.17;3.60;;;15.70;99.90;;;;;;5033368;28;20210;-57
2022/05/18 04:26:11;;;;;;;6.53;3.60;;;15.80;99.90;;;;;;5033400;28;20214;-57
2022/05/18 04:28:38;;;;;;;4.80;3.93;;;15.80;99.90;;;;;;5033288;28;20272;-58
2022/05/18 04:31:05;;;;;;;5.03;3.67;;;15.80;99.90;;;;;;5033355;28;20206;-58
2022/05/18 04:33:32;;;;;;;3.70;3.40;;;15.90;99.90;;;;;;5033044;28;20735;-58
2022/05/18 04:36:02;;;;;;;6.10;3.80;;;15.90;99.90;;;;;;5033133;28;20217;-58
2022/05/18 04:38:30;;;;;;;8.43;4.07;;;16.00;99.90;;;;;;5033278;28;20234;-58
2022/05/18 04:40:57;;;;;;;8.97;3.97;;;16.10;99.90;;;;;;5033198;28;20214;-58
2022/05/18 04:43:24;;;;;;;9.37;4.20;;;16.20;99.90;;;;;;5032798;28;20318;-58
2022/05/18 04:45:51;;;;;;;7.03;3.87;;;16.30;99.90;;;;;;5033058;28;20206;-58
2022/05/18 04:48:20;;;;;;;8.87;4.60;;;16.40;99.90;;;;;;5032615;28;20234;-58
2022/05/18 04:50:48;;;;;;;6.17;3.50;;;16.50;99.90;;;;;;5033009;28;20206;-57
2022/05/18 04:53:17;;;;;;;4.17;3.27;;;16.50;99.90;;;;;;5033033;28;20266;-58
2022/05/18 04:55:44;;;;;;;5.63;4.00;;;16.70;99.90;;;;;;5033393;28;20202;-58
2022/05/18 04:58:11;;;;;;;5.53;3.97;;;16.70;99.90;;;;;;5032410;28;20237;-58
2022/05/18 05:00:39;;;;;;;4.73;3.50;;;16.80;99.90;;;;;;5032540;28;20585;-58
2022/05/18 05:03:06;;;;;;;6.80;4.10;;;16.80;99.90;;;;;;5031765;28;20321;-58
2022/05/18 05:05:33;;;;;;;5.63;3.90;;;17.00;99.90;;;;;;5032272;28;20202;-57
2022/05/18 05:08:00;;;;;;;5.87;3.83;;;17.10;99.90;;;;;;5055697;23;20614;-58
2022/05/18 05:10:28;;;;;;;6.87;4.40;;;17.20;99.90;;;;;;5032339;28;20733;-58
2022/05/18 05:12:55;;;;;;;4.93;4.00;;;17.30;99.90;;;;;;5032273;28;20204;-60
2022/05/18 05:15:22;;;;;;;7.73;3.80;;;17.40;99.90;;;;;;5032566;28;20312;-57
2022/05/18 05:17:48;;;;;;;6.67;4.30;;;17.50;99.90;;;;;;5032280;28;20217;-59
2022/05/18 05:20:15;;;;;;;4.40;3.67;;;17.70;99.90;;;;;;5032529;28;20693;-59
2022/05/18 05:22:42;;;;;;;6.63;3.95;;;17.80;99.90;;;;;;5032367;28;20276;-59
2022/05/18 05:25:10;;;;;;;4.13;3.47;;;18.10;99.90;;;;;;5032170;28;20211;-59
2022/05/18 05:27:38;;;;;;;6.68;3.92;;;18.70;99.90;;;;;;5032751;28;20210;-57
2022/05/18 05:30:07;;;;;;;5.70;3.20;;;20.40;99.90;;;;;;5032093;28;20642;-58
2022/05/18 05:32:34;;;;;;;6.85;3.50;;;22.50;99.90;;;;;;5032449;28;20636;-58
2022/05/18 05:35:01;;;;;;;3.95;2.75;;;24.60;99.90;;;;;;5032087;28;20213;-57
2022/05/18 05:37:28;;;;;;;3.67;3.00;;;26.30;99.90;;;;;;5032509;28;20213;-58
2022/05/18 05:39:55;;;;;;;6.07;2.95;;;27.80;99.90;;;;;;5032447;28;20764;-57
2022/05/18 05:42:22;;;;;;;6.80;2.88;;;29.40;94.70;;;;;;5032569;28;20230;-57
2022/05/18 05:44:50;;;;;;;7.15;2.50;;;30.70;90.40;;;;;;5032096;28;20207;-57
2022/05/18 05:47:17;;;;;;;4.78;2.60;;;31.80;83.20;;;;;;5032813;28;20205;-58
2022/05/18 05:49:44;;;;;;;7.35;3.30;;;32.80;78.40;;;;;;5032329;28;20237;-56
2022/05/18 05:52:11;;;;;;;5.40;2.75;;;33.70;72.20;;;;;;5031943;28;20198;-66
2022/05/18 05:54:38;;;;;;;5.15;2.53;;;34.40;68.30;;;;;;5032327;28;20206;-61
2022/05/18 05:57:06;;;;;;;6.03;3.03;;;35.00;65.70;;;;;;5032860;28;20676;-62
2022/05/18 05:59:33;;;;;;;3.17;2.53;;;35.70;62.40;;;;;;5031678;28;20276;-57
2022/05/18 06:02:03;;;;;;;5.07;2.80;;;35.50;59.20;;;;;;5031680;28;20222;-61
2022/05/18 06:04:31;;;;;;;5.80;3.13;;;34.90;60.70;;;;;;5031699;28;20206;-58
2022/05/18 06:06:58;;;;;;;6.68;2.70;;;34.40;60.00;;;;;;5031890;28;20678;-57
2022/05/18 06:09:25;;;;;;;5.72;2.90;;;34.00;60.40;;;;;;5031481;28;20240;-57
2022/05/18 06:11:52;;;;;;;5.47;3.03;;;33.90;60.60;;;;;;5031572;28;20674;-57
2022/05/18 06:14:19;;;;;;;5.32;2.35;;;33.90;60.40;;;;;;5031354;28;20202;-58
2022/05/18 06:16:46;;;;;;;5.80;2.58;;;34.20;59.60;;;;;;5036122;28;20206;-60
2022/05/18 06:19:15;;;;;;;3.60;2.17;;;34.90;58.00;;;;;;5035673;28;20229;-60
2022/05/18 06:21:42;;;;;;;3.47;2.30;;;35.60;56.60;;;;;;5035570;28;20206;-60
2022/05/18 06:24:10;;;;;;;3.35;2.20;;;36.00;55.50;;;;;;5035213;28;20225;-60
2022/05/18 06:26:37;;;;;;;4.20;2.25;;;36.40;54.80;;;;;;5035666;28;20206;-61
2022/05/18 06:29:04;;;;;;;3.65;2.30;;;36.90;53.90;;;;;;5035365;28;20233;-61
2022/05/18 06:31:31;;;;;;;4.50;2.25;;;37.50;52.70;;;;;;5035637;28;20217;-60
2022/05/18 06:33:57;;;;;;;5.32;2.33;;;38.30;51.20;;;;;;5035131;28;20214;-60
2022/05/18 06:36:26;;;;;;;5.00;2.28;;;39.00;49.80;;;;;;5035344;28;20678;-60
2022/05/18 06:38:52;;;;;;;3.42;2.10;;;39.60;47.80;;;;;;5035136;28;20230;-60
2022/05/18 06:41:25;;;;;;;4.90;2.08;;;39.90;46.80;;;;;;5035488;28;20210;-60
2022/05/18 06:43:54;;;;;;;3.92;2.28;;;39.90;46.50;;;;;;5034902;28;20229;-61
2022/05/18 06:46:22;;;;;;;4.40;2.25;;;40.00;46.70;;;;;;5035371;28;20214;-61
2022/05/18 06:48:49;;;;;;;5.13;1.90;;;40.30;45.60;;;;;;5035108;28;20230;-60
2022/05/18 06:51:19;;;;;;;2.92;1.80;;;40.50;45.30;;;;;;5035141;28;20245;-59
2022/05/18 06:53:51;;;;;;;3.67;1.80;;;40.40;45.00;;;;;;5035005;28;20237;-60
2022/05/18 06:56:19;;;;;;;2.95;2.05;;;40.30;44.80;;;;;;5035140;28;20213;-60
2022/05/18 06:58:46;;;;;;;3.25;1.77;;;40.50;44.30;;;;;;5034735;28;20264;-60
2022/05/18 07:01:13;;;;;;;2.50;1.90;;;40.60;44.10;;;;;;5034986;28;20213;-60
2022/05/18 07:03:40;;;;;;;3.03;2.08;;;40.70;44.00;;;;;;5034679;28;20724;-60
2022/05/18 07:06:07;;;;;;;3.08;1.90;;;40.70;43.80;;;;;;5034879;28;20206;-60
2022/05/18 07:08:34;;;;;;;4.53;2.00;;;40.70;43.50;;;;;;5034856;28;20238;-59
2022/05/18 07:11:03;;;;;;;3.83;1.88;;;40.50;43.60;;;;;;5034775;28;20291;-60
2022/05/18 07:13:30;;;;;;;4.90;2.45;;;40.40;43.30;;;;;;5034439;28;20306;-59
2022/05/18 07:15:57;;;;;;;4.28;2.00;;;40.10;43.80;;;;;;5034563;28;20206;-60
2022/05/18 07:18:29;;;;;;;2.80;1.90;;;40.00;43.70;;;;;;5034218;28;20580;-56
2022/05/18 07:20:56;;;;;;;4.88;2.22;;;40.10;43.90;;;;;;5034532;28;20302;-56
2022/05/18 07:23:23;;;;;;;3.70;1.90;;;40.30;43.30;;;;;;5034302;28;20222;-59
2022/05/18 07:25:49;;;;;;;4.93;1.95;;;40.00;43.40;;;;;;5034494;28;20213;-59
2022/05/18 07:28:17;;;;;;;3.85;2.13;;;40.50;42.60;;;;;;5033471;28;20621;-59
2022/05/18 07:30:44;;;;;;;3.92;1.90;;;41.10;42.00;;;;;;5034394;28;20481;-58
2022/05/18 07:33:11;;;;;;;5.22;2.00;;;41.80;40.90;;;;;;5033779;28;20205;-59
2022/05/18 07:35:37;;;;;;;3.50;1.60;;;42.40;40.40;;;;;;5034463;28;20216;-59
2022/05/18 07:38:05;;;;;;;3.15;1.90;;;43.00;39.50;;;;;;5034167;28;20210;-59
2022/05/18 07:40:33;;;;;;;6.07;2.10;;;43.50;38.80;;;;;;5034225;28;20209;-60
2022/05/18 07:43:01;;;;;;;2.80;1.58;;;43.70;38.30;;;;;;5033797;28;20229;-60
2022/05/18 07:45:29;;;;;;;4.38;1.75;;;43.60;38.30;;;;;;5033706;28;20213;-60
2022/05/18 07:47:56;;;;;;;2.78;1.67;;;43.20;38.50;;;;;;5033566;28;20615;-60
2022/05/18 07:50:25;;;;;;;3.60;2.00;;;43.10;38.70;;;;;;5033947;28;20210;-63
2022/05/18 07:52:57;;;;;;;2.78;1.65;;;42.40;39.30;;;;;;5034112;28;20236;-59
2022/05/18 07:55:24;;;;;;;2.15;1.60;;;42.40;39.20;;;;;;5033902;28;20575;-59
2022/05/18 07:57:50;;;;;;;3.47;2.05;;;42.80;38.80;;;;;;5034027;28;20216;-58
2022/05/18 08:00:18;;;;;;;3.95;2.20;;;43.10;38.20;;;;;;5034184;28;20201;-59
2022/05/18 08:02:46;;;;;;;4.50;2.00;;;43.10;38.40;;;;;;5034048;28;20221;-59
2022/05/18 08:05:13;;;;;;;3.50;1.83;;;42.80;38.20;;;;;;5033617;28;20206;-59
2022/05/18 08:07:45;;;;;;;4.13;1.67;;;42.20;39.20;;;;;;5033371;28;20202;-59
2022/05/18 08:15:41;;;;;;;3.05;1.85;;;42.00;39.30;;;;;;5034000;28;20212;-59
2022/05/18 08:18:09;;;;;;;2.97;1.88;;;41.40;40.00;;;;;;5033392;28;20233;-59
2022/05/18 08:20:39;;;;;;;4.18;1.92;;;40.80;40.40;;;;;;5033200;28;20615;-63
2022/05/18 08:23:07;;;;;;;3.53;1.80;;;39.80;41.60;;;;;;5033177;28;20259;-62
2022/05/18 08:25:34;;;;;;;4.07;2.25;;;39.10;42.20;;;;;;5033099;28;20686;-61
2022/05/18 08:28:01;;;;;;;2.10;1.70;;;38.70;42.70;;;;;;5033270;28;20688;-61
2022/05/18 08:30:30;;;;;;;4.10;1.88;;;38.80;42.50;;;;;;5033403;28;20206;-61
2022/05/18 08:32:57;;;;;;;2.55;1.95;;;38.90;42.40;;;;;;5033224;28;20206;-61
2022/05/18 08:35:29;;;;;;;5.00;2.15;;;38.80;42.50;;;;;;5032891;28;20206;-61
2022/05/18 08:37:56;;;;;;;4.03;2.20;;;38.10;44.00;;;;;;5034559;28;20214;-61
2022/05/18 08:40:39;;;;;;;3.05;2.03;;;36.80;44.90;;;;;;5034197;28;20662;-61
2022/05/18 08:43:08;;;;;;;4.55;2.20;;;35.20;47.00;;;;;;5033410;28;20261;-61
2022/05/18 08:45:38;;;;;;;4.40;2.00;;;33.90;49.20;;;;;;5032692;28;20210;-61
2022/05/18 08:48:09;;;;;;;2.90;2.10;;;32.40;51.40;;;;;;5032942;28;20599;-60
2022/05/18 08:50:39;;;;;;;5.93;2.30;;;31.10;53.20;;;;;;5033204;28;20271;-59
2022/05/18 08:53:31;;;;;;;4.75;2.30;;;30.10;55.20;;;;;;5033055;28;20337;-60
2022/05/18 08:56:05;;;;;;;3.55;2.13;;;29.30;56.40;;;;;;5032908;28;20660;-59
2022/05/18 08:58:40;;;;;;;3.65;1.98;;;28.70;58.50;;;;;;5032806;28;20234;-59
2022/05/18 09:01:15;;;;;;;4.25;2.42;;;27.90;59.50;;;;;;5033013;28;20259;-59
2022/05/18 09:03:44;;;;;;;4.50;2.35;;;27.50;60.90;;;;;;5032337;28;20596;-60
2022/05/18 09:06:22;;;;;;;3.03;1.90;;;27.10;62.50;;;;;;5032326;28;20280;-62
2022/05/18 09:11:34;;;;;;;3.05;2.13;;;26.80;62.50;;;;;;5031446;28;20193;-59
2022/05/18 09:14:01;;;;;;;3.38;2.20;;;26.60;63.00;;;;;;5032350;28;20207;-59
2022/05/18 09:16:34;;;;;;;3.67;2.20;;;26.60;64.10;;;;;;5032569;28;20203;-60
2022/05/18 09:19:09;;;;;;;2.38;1.80;;;26.60;63.30;;;;;;5033198;28;20309;-59
2022/05/18 09:21:48;;;;;;;2.75;1.92;;;26.50;63.70;;;;;;5032668;28;20205;-60
2022/05/18 09:24:27;;;;;;;4.88;2.20;;;26.60;63.30;;;;;;5032303;28;20576;-61
2022/05/18 09:27:19;;;;;;;5.00;2.10;;;26.50;63.60;;;;;;5032145;28;20207;-61
2022/05/18 09:29:52;;;;;;;3.05;1.92;;;26.70;61.80;;;;;;5032086;28;20276;-60
2022/05/18 09:32:48;;;;;;;4.70;2.15;;;26.70;61.30;;;;;;5032307;28;20214;-66
2022/05/18 09:35:29;;;;;;;4.15;2.00;;;26.80;63.40;;;;;;5031522;28;20252;-60
2022/05/18 09:38:02;;;;;;;2.85;1.90;;;26.80;62.00;;;;;;5030214;28;20210;-60
2022/05/18 09:40:32;;;;;;;5.88;2.95;;;26.90;61.20;;;;;;5032551;28;20197;-58
2022/05/18 09:43:05;;;;;;;4.38;1.88;;;27.00;60.50;;;;;;5032279;28;20202;-61
2022/05/18 09:45:35;;;;;;;15.80;9.77;;;26.90;60.40;;;;;;5031820;28;20268;-61
2022/05/18 09:48:07;;;;;;;13.70;9.18;;;26.80;61.90;;;;;;5031646;28;20645;-63
2022/05/18 09:50:37;;;;;;;14.27;9.05;;;26.90;62.30;;;;;;5031270;28;20210;-61
2022/05/18 09:53:06;;;;;;;3.63;2.70;;;26.90;62.20;;;;;;5031712;28;20206;-58
2022/05/18 09:55:33;;;;;;;3.33;1.50;;;27.10;60.50;;;;;;5031643;28;20567;-58
2022/05/18 09:58:04;;;;;;;2.78;1.92;;;27.20;57.20;;;;;;5031232;28;20202;-54
2022/05/18 10:00:33;;;;;;;3.85;2.03;;;27.10;56.20;;;;;;5031590;28;20206;-58
2022/05/18 10:08:46;;;;;;;3.38;1.80;;;27.20;57.00;;;;;;5028443;28;20398;-60
2022/05/18 10:11:20;;;;;;;2.35;2.13;;;27.40;58.60;;;;;;5029286;28;20206;-57
2022/05/18 10:13:57;;;;;;;2.38;1.77;;;27.40;59.40;;;;;;5029439;28;20211;-56
2022/05/18 10:16:37;;;;;;;3.15;1.80;;;27.60;59.40;;;;;;5031155;28;20712;-56
2022/05/18 10:19:05;;;;;;;2.10;1.52;;;27.60;59.80;;;;;;5031341;28;20226;-63
2022/05/18 10:21:35;;;;;;;4.03;1.50;;;27.60;59.40;;;;;;5030936;28;20716;-58
2022/05/18 10:24:07;;;;;;;2.63;1.65;;;27.70;59.50;;;;;;5031209;28;20264;-57
2022/05/18 10:26:36;;;;;;;2.80;1.75;;;27.80;58.30;;;;;;5031439;28;20324;-60
2022/05/18 10:29:07;;;;;;;2.28;1.50;;;28.00;57.40;;;;;;5031223;28;20241;-61
2022/05/18 10:31:36;;;;;;;5.40;1.70;;;28.30;55.80;;;;;;5031311;28;20217;-61
2022/05/18 10:34:15;;;;;;;2.40;1.30;;;28.40;54.40;;;;;;5030641;28;20206;-61
2022/05/18 10:36:43;;;;;;;2.78;1.50;;;28.60;53.90;;;;;;5031424;28;20206;-58
2022/05/18 10:39:11;;;;;;;3.25;1.40;;;28.70;54.10;;;;;;5031542;28;20226;-58
2022/05/18 10:41:42;;;;;;;3.92;2.55;;;28.60;53.10;;;;;;5031654;28;20689;-59
2022/05/18 10:44:16;;;;;;;4.28;1.58;;;28.60;53.30;;;;;;5031101;28;20349;-58
2022/05/18 10:46:44;;;;;;;3.03;1.60;;;28.70;54.30;;;;;;5031107;28;20646;-59
2022/05/18 10:49:26;;;;;;;2.95;1.40;;;28.80;54.30;;;;;;5031172;28;20239;-55
2022/05/18 10:51:53;;;;;;;2.85;1.60;;;29.00;53.80;;;;;;5031192;28;20218;-59
2022/05/18 10:54:25;;;;;;;1.90;1.30;;;29.00;53.60;;;;;;5031159;28;20202;-62
2022/05/18 10:56:54;;;;;;;1.63;1.30;;;29.00;53.10;;;;;;5031123;28;20290;-62
2022/05/18 10:59:36;;;;;;;3.53;1.40;;;29.10;52.10;;;;;;5031464;28;20229;-62
2022/05/18 11:02:10;;;;;;;1.83;1.23;;;28.80;51.00;;;;;;5032278;28;20275;-56
2022/05/18 11:04:50;;;;;;;1.50;1.30;;;28.50;52.10;;;;;;5034639;28;20226;-55
2022/05/18 11:07:19;;;;;;;3.88;1.60;;;28.50;52.60;;;;;;5034953;28;20229;-55
2022/05/18 11:09:47;;;;;;;2.45;1.58;;;28.60;52.40;;;;;;5090054;23;20232;-56
2022/05/18 11:12:24;;;;;;;4.20;1.60;;;28.70;53.80;;;;;;5074759;28;20231;-56
2022/05/18 11:14:55;;;;;;;3.13;1.35;;;28.70;53.00;;;;;;5074151;28;20723;-56
2022/05/18 11:17:46;;;;;;;2.58;1.50;;;28.80;51.70;;;;;;5074337;28;20711;-56
2022/05/18 11:20:26;;;;;;;1.65;1.15;;;28.80;52.50;;;;;;5056856;28;20585;-56
2022/05/18 11:23:00;;;;;;;3.08;1.48;;;28.90;51.20;;;;;;5054581;28;20619;-56
2022/05/18 11:25:44;;;;;;;1.95;1.45;;;29.10;51.50;;;;;;5054196;28;20232;-56
2022/05/18 11:28:21;;;;;;;3.70;1.50;;;29.20;50.90;;;;;;5053778;28;20680;-55
2022/05/18 11:30:53;;;;;;;2.38;1.00;;;29.10;49.50;;;;;;5054507;28;20201;-62
2022/05/18 11:33:32;;;;;;;1.48;0.98;;;28.90;49.80;;;;;;5054428;28;20214;-59
2022/05/18 11:36:12;;;;;;;2.08;1.30;;;28.70;49.00;;;;;;5054207;28;20259;-58
2022/05/18 11:38:59;;;;;;;2.78;1.23;;;28.70;50.10;;;;;;5054223;28;20229;-58
2022/05/18 11:41:54;;;;;;;2.85;1.65;;;28.90;49.90;;;;;;5054360;28;20205;-58
2022/05/18 11:44:31;;;;;;;2.95;1.30;;;28.90;52.80;;;;;;5053255;28;20233;-58
2022/05/18 11:47:32;;;;;;;2.63;1.50;;;28.80;51.90;;;;;;5054258;28;20296;-59
2022/05/18 11:50:11;;;;;;;4.13;1.30;;;28.80;52.20;;;;;;5053793;28;20648;-58
2022/05/18 11:52:52;;;;;;;2.55;1.60;;;28.90;52.80;;;;;;5054105;28;20201;-59
2022/05/18 11:55:28;;;;;;;3.88;1.58;;;28.80;51.50;;;;;;5053890;28;20209;-57
2022/05/18 11:58:04;;;;;;;2.97;1.63;;;28.50;53.10;;;;;;5053923;28;20213;-57
2022/05/18 12:00:53;;;;;;;3.28;1.48;;;28.50;52.40;;;;;;5053699;28;20282;-57
2022/05/18 12:03:49;;;;;;;2.95;1.60;;;28.70;52.30;;;;;;5053860;28;20214;-58
2022/05/18 12:06:29;;;;;;;1.27;1.10;;;28.90;52.10;;;;;;5053574;28;20297;-58
2022/05/18 12:09:22;;;;;;;3.80;1.50;;;29.10;52.00;;;;;;5053377;28;20241;-58
2022/05/18 12:11:58;;;;;;;1.70;1.33;;;29.20;51.50;;;;;;5053356;28;20267;-59
2022/05/18 12:14:35;;;;;;;2.95;1.77;;;29.20;52.50;;;;;;5052713;28;20201;-59
2022/05/18 12:17:07;;;;;;;2.55;1.40;;;29.10;52.00;;;;;;5053782;28;20212;-59
2022/05/18 12:19:42;;;;;;;3.47;1.60;;;29.00;52.00;;;;;;5053198;28;20291;-58
2022/05/18 12:22:13;;;;;;;3.30;1.30;;;29.00;52.60;;;;;;5053174;28;20209;-59
2022/05/18 12:24:43;;;;;;;4.18;1.20;;;29.10;51.60;;;;;;5052802;28;20282;-59
2022/05/18 12:27:12;;;;;;;5.22;1.40;;;29.10;52.00;;;;;;5053377;28;20205;-58
2022/05/18 12:29:41;;;;;;;4.45;1.40;;;29.10;51.80;;;;;;5053382;28;20225;-58
2022/05/18 12:32:10;;;;;;;4.78;1.70;;;29.20;52.00;;;;;;5053077;28;20429;-58
2022/05/18 12:34:45;;;;;;;1.73;1.25;;;29.10;52.10;;;;;;5052738;28;20206;-58
2022/05/18 12:37:25;;;;;;;1.92;1.48;;;29.00;51.00;;;;;;5052988;28;20208;-59
2022/05/18 12:40:04;;;;;;;3.72;1.40;;;29.00;50.90;;;;;;5052909;28;20222;-59
2022/05/18 12:42:34;;;;;;;4.13;1.42;;;29.00;49.20;;;;;;5052930;28;20218;-58
2022/05/18 12:45:13;;;;;;;2.97;1.00;;;29.00;50.50;;;;;;5052516;28;20579;-58
2022/05/18 12:47:48;;;;;;;1.98;1.10;;;28.80;50.10;;;;;;5052685;28;20206;-58
2022/05/18 12:50:19;;;;;;;4.22;1.52;;;28.90;50.30;;;;;;5052961;28;20251;-58
2022/05/18 12:52:53;;;;;;;2.55;1.40;;;29.10;49.80;;;;;;5052852;28;20300;-58
2022/05/18 12:55:37;;;;;;;1.48;1.30;;;29.10;51.40;;;;;;5052557;28;20197;-58
2022/05/18 12:58:27;;;;;;;2.78;1.38;;;29.20;52.50;;;;;;5052617;28;20260;-58
2022/05/18 13:01:08;;;;;;;3.83;1.42;;;29.30;51.90;;;;;;5052542;28;20210;-59
2022/05/18 13:03:51;;;;;;;7.55;1.80;;;29.20;50.80;;;;;;5052530;28;20202;-58
2022/05/18 13:06:29;;;;;;;4.15;1.52;;;29.20;51.30;;;;;;5052420;28;20237;-58
2022/05/18 13:09:04;;;;;;;1.67;1.40;;;29.50;51.00;;;;;;5052671;28;20235;-58
2022/05/18 13:11:49;;;;;;;2.03;1.42;;;29.60;51.10;;;;;;5052311;28;20704;-58
2022/05/18 13:14:31;;;;;;;2.78;1.50;;;29.50;50.40;;;;;;5052037;28;20247;-58
2022/05/18 13:17:21;;;;;;;1.50;1.35;;;29.60;50.40;;;;;;5052493;28;20277;-58
2022/05/18 13:19:58;;;;;;;3.25;1.60;;;29.60;51.10;;;;;;5052121;28;20338;-58
2022/05/18 13:22:35;;;;;;;1.85;1.40;;;29.60;52.00;;;;;;5052065;28;20233;-59